createdAt,value
2023-03-04T00:00:52.848Z,89.39
2023-03-04T00:03:54.255Z,89.31
2023-03-04T00:06:55.677Z,89.85
2023-03-04T00:09:57.318Z,89.56
2023-03-04T00:12:58.719Z,89.70
2023-03-04T00:16:00.212Z,89.45
2023-03-04T00:19:01.633Z,90.96
2023-03-04T00:22:04.445Z,90.13
2023-03-04T00:25:07.409Z,90.18
2023-03-04T00:28:08.807Z,90.63
2023-03-04T00:31:10.797Z,89.89
2023-03-04T00:34:12.182Z,91.32
2023-03-04T00:37:13.709Z,90.53
2023-03-04T00:40:15.207Z,92.39
2023-03-04T00:43:16.598Z,93.02
2023-03-04T00:46:18.028Z,93.41
2023-03-04T00:49:19.448Z,92.86
2023-03-04T00:52:21.030Z,93.21
2023-03-04T00:55:22.488Z,92.22
2023-03-04T00:58:23.941Z,93.56
2023-03-04T01:01:26.128Z,92.83
2023-03-04T01:04:27.677Z,93.41
2023-03-04T01:07:29.162Z,94.46
2023-03-04T01:10:31.044Z,94.57
2023-03-04T01:13:33.426Z,94.90
2023-03-04T01:16:34.947Z,95.48
2023-03-04T01:19:36.419Z,95.68
2023-03-04T01:22:38.154Z,96.39
2023-03-04T01:25:39.564Z,96.09
2023-03-04T01:28:41.098Z,96.83
2023-03-04T01:31:42.610Z,95.84
2023-03-04T01:34:44.154Z,96.85
2023-03-04T01:37:45.594Z,96.51
2023-03-04T01:40:48.406Z,96.99
2023-03-04T01:43:50.412Z,98.03
2023-03-04T01:46:53.795Z,96.98
2023-03-04T01:49:57.520Z,96.38
2023-03-04T01:52:59.381Z,96.71
2023-03-04T01:56:10.797Z,96.88
2023-03-04T01:59:20.891Z,97.14
2023-03-04T02:02:22.828Z,98.06
2023-03-04T02:05:24.706Z,97.79
2023-03-04T02:08:26.105Z,97.68
2023-03-04T02:11:27.587Z,98.18
2023-03-04T02:14:29.605Z,98.38
2023-03-04T02:17:33.217Z,98.88
2023-03-04T02:25:24.019Z,99.92
2023-03-04T02:28:25.910Z,100.00
2023-03-04T02:31:34.213Z,100.00
2023-03-04T02:34:36.471Z,100.00
2023-03-04T02:37:37.904Z,100.00
2023-03-04T02:40:43.047Z,100.00
2023-03-04T02:43:46.484Z,100.00
2023-03-04T02:46:50.140Z,100.00
2023-03-04T02:49:51.611Z,100.00
2023-03-04T02:52:53.013Z,100.00
2023-03-04T02:55:54.442Z,100.00
2023-03-04T02:58:57.963Z,100.00
2023-03-04T03:02:00.224Z,100.00
2023-03-04T03:05:01.939Z,100.00
2023-03-04T03:08:04.184Z,100.00
2023-03-04T03:11:06.853Z,100.00
2023-03-04T03:14:10.323Z,100.00
2023-03-04T03:17:11.781Z,100.00
2023-03-04T03:20:14.921Z,100.00
2023-03-04T03:23:17.992Z,100.00
2023-03-04T03:26:20.276Z,100.00
2023-03-04T03:29:21.692Z,100.00
2023-03-04T03:32:23.145Z,100.00
2023-03-04T03:35:26.140Z,100.00
2023-03-04T03:38:27.777Z,100.00
2023-03-04T03:41:29.253Z,100.00
2023-03-04T03:44:30.715Z,100.00
2023-03-04T03:47:32.208Z,100.00
2023-03-04T03:50:33.685Z,100.00
2023-03-04T03:53:35.105Z,100.00
2023-03-04T03:56:36.481Z,100.00
2023-03-04T03:59:37.863Z,100.00
2023-03-04T04:02:39.956Z,100.00
2023-03-04T04:05:41.406Z,100.00
2023-03-04T04:08:42.803Z,100.00
2023-03-04T04:11:44.192Z,100.00
2023-03-04T04:14:45.837Z,100.00
2023-03-04T04:17:47.268Z,100.00
2023-03-04T04:20:48.655Z,100.00
2023-03-04T04:23:50.048Z,100.00
2023-03-04T04:26:51.457Z,100.00
2023-03-04T04:29:52.853Z,100.00
2023-03-04T04:32:54.240Z,100.00
2023-03-04T04:35:55.684Z,100.00
2023-03-04T04:38:57.542Z,100.00
2023-03-04T04:41:58.949Z,100.00
2023-03-04T04:45:00.354Z,100.00
2023-03-04T04:48:01.767Z,100.00
2023-03-04T04:51:03.259Z,100.00
2023-03-04T04:54:05.643Z,100.00
2023-03-04T04:57:07.019Z,100.00
2023-03-04T05:00:10.001Z,100.00
2023-03-04T05:03:11.435Z,100.00
2023-03-04T05:06:13.226Z,100.00
2023-03-04T05:09:14.783Z,100.00
2023-03-04T05:12:16.157Z,100.00
2023-03-04T05:15:17.744Z,100.00
2023-03-04T05:18:20.416Z,100.00
2023-03-04T05:21:21.838Z,100.00
2023-03-04T05:24:23.219Z,100.00
2023-03-04T05:27:24.645Z,100.00
2023-03-04T05:30:26.019Z,100.00
2023-03-04T05:33:27.531Z,100.00
2023-03-04T05:36:28.904Z,100.00
2023-03-04T05:39:30.270Z,100.00
2023-03-04T05:42:31.688Z,100.00
2023-03-04T05:45:33.600Z,100.00
2023-03-04T05:48:35.042Z,100.00
2023-03-04T05:51:36.483Z,100.00
2023-03-04T05:54:37.889Z,100.00
2023-03-04T05:57:39.334Z,100.00
2023-03-04T06:00:40.758Z,100.00
2023-03-04T06:03:43.329Z,100.00
2023-03-04T06:06:46.557Z,100.00
2023-03-04T06:09:47.981Z,100.00
2023-03-04T06:12:49.396Z,100.00
2023-03-04T06:15:58.958Z,100.00
2023-03-04T06:19:00.347Z,100.00
2023-03-04T06:22:01.721Z,100.00
2023-03-04T06:25:03.621Z,100.00
2023-03-04T06:28:05.038Z,100.00
2023-03-04T06:31:06.442Z,100.00
2023-03-04T06:34:09.400Z,100.00
2023-03-04T06:37:10.804Z,100.00
2023-03-04T06:40:13.214Z,100.00
2023-03-04T06:43:14.598Z,100.00
2023-03-04T06:46:15.974Z,100.00
2023-03-04T06:49:17.533Z,100.00
2023-03-04T06:52:19.023Z,100.00
2023-03-04T06:55:20.570Z,100.00
2023-03-04T06:58:21.971Z,100.00
2023-03-04T07:01:25.942Z,100.00
2023-03-04T07:04:27.449Z,100.00
2023-03-04T07:07:28.980Z,100.00
2023-03-04T07:10:30.449Z,100.00
2023-03-04T07:13:32.539Z,100.00
2023-03-04T07:16:34.097Z,100.00
2023-03-04T07:19:35.495Z,100.00
2023-03-04T07:22:37.183Z,100.00
2023-03-04T07:25:38.639Z,100.00
2023-03-04T07:28:40.295Z,100.00
2023-03-04T07:31:42.140Z,100.00
2023-03-04T07:34:43.523Z,100.00
2023-03-04T07:37:45.086Z,100.00
2023-03-04T07:40:55.250Z,100.00
2023-03-04T07:43:58.099Z,100.00
2023-03-04T07:46:59.465Z,100.00
2023-03-04T07:50:00.917Z,100.00
2023-03-04T07:53:02.303Z,100.00
2023-03-04T07:56:04.998Z,100.00
2023-03-04T07:59:06.472Z,100.00
2023-03-04T08:02:08.035Z,100.00
2023-03-04T08:05:09.590Z,100.00
2023-03-04T08:08:11.038Z,100.00
2023-03-04T08:11:15.969Z,100.00
2023-03-04T08:14:17.416Z,100.00
2023-03-04T08:17:18.832Z,100.00
2023-03-04T08:20:20.331Z,100.00
2023-03-04T08:23:21.737Z,100.00
2023-03-04T08:26:26.497Z,100.00
2023-03-04T08:29:28.272Z,100.00
2023-03-04T08:32:30.001Z,100.00
2023-03-04T08:35:31.667Z,100.00
2023-03-04T08:38:33.134Z,100.00
2023-03-04T08:41:34.511Z,100.00
2023-03-04T08:44:35.885Z,100.00
2023-03-04T08:47:37.952Z,100.00
2023-03-04T08:50:39.358Z,100.00
2023-03-04T08:53:41.382Z,100.00
2023-03-04T08:56:42.831Z,100.00
2023-03-04T08:59:44.225Z,100.00
2023-03-04T09:02:45.801Z,100.00
2023-03-04T09:05:48.256Z,100.00
2023-03-04T09:08:49.756Z,100.00
2023-03-04T09:11:51.202Z,100.00
2023-03-04T09:15:08.409Z,100.00
2023-03-04T09:18:12.150Z,100.00
2023-03-04T09:21:13.567Z,100.00
2023-03-04T09:24:15.267Z,100.00
2023-03-04T09:27:16.701Z,100.00
2023-03-04T09:30:18.475Z,100.00
2023-03-04T09:33:19.891Z,100.00
2023-03-04T09:36:22.023Z,100.00
2023-03-04T09:39:23.486Z,100.00
2023-03-04T09:42:36.932Z,100.00
2023-03-04T09:45:47.072Z,100.00
2023-03-04T09:48:54.603Z,100.00
2023-03-04T09:52:25.691Z,100.00
2023-03-04T09:55:39.211Z,100.00
2023-03-04T09:59:01.430Z,99.72
2023-03-04T10:02:19.085Z,99.48
2023-03-04T10:05:21.967Z,100.00
2023-03-04T10:08:41.238Z,97.81
2023-03-04T10:11:50.324Z,97.82
2023-03-04T10:15:00.706Z,97.63
2023-03-04T10:18:37.646Z,96.10
2023-03-04T10:21:43.001Z,95.35
2023-03-04T10:24:47.046Z,96.16
2023-03-04T10:27:54.008Z,95.86
2023-03-04T10:31:25.997Z,94.02
2023-03-04T10:34:27.699Z,94.56
2023-03-04T10:37:45.502Z,94.29
2023-03-04T10:40:47.098Z,94.57
2023-03-04T10:44:00.698Z,94.66
2023-03-04T10:47:02.204Z,94.35
2023-03-04T10:50:05.466Z,94.20
2023-03-04T10:53:25.252Z,93.69
2023-03-04T10:56:36.519Z,94.12
2023-03-04T10:59:43.374Z,94.76
2023-03-04T11:02:46.305Z,92.43
2023-03-04T11:05:48.312Z,91.76
2023-03-04T11:08:55.274Z,92.08
2023-03-04T11:12:00.290Z,90.70
2023-03-04T11:15:03.179Z,90.55
2023-03-04T11:18:10.069Z,90.28
2023-03-04T11:21:19.046Z,88.98
2023-03-04T11:24:29.591Z,89.95
2023-03-04T11:27:44.324Z,88.92
2023-03-04T11:30:50.043Z,87.34
2023-03-04T11:33:58.326Z,87.34
2023-03-04T11:37:08.299Z,86.98
2023-03-04T11:40:16.289Z,86.68
2023-03-04T11:43:24.551Z,84.41
2023-03-04T11:46:44.020Z,84.82
2023-03-04T11:50:03.396Z,85.00
2023-03-04T11:53:25.534Z,83.42
2023-03-04T11:56:33.079Z,82.83
2023-03-04T11:59:42.640Z,83.45
2023-03-04T12:03:18.454Z,82.64
2023-03-04T12:06:26.040Z,80.55
2023-03-04T12:09:57.102Z,80.04
2023-03-04T12:13:13.715Z,78.44
2023-03-04T12:16:48.566Z,79.75
2023-03-04T12:19:58.940Z,79.48
2023-03-04T12:23:22.263Z,79.54
2023-03-04T12:26:36.873Z,78.92
2023-03-04T12:29:44.353Z,76.46
2023-03-04T12:33:03.746Z,74.17
2023-03-04T12:36:29.998Z,76.02
2023-03-04T12:39:56.433Z,76.59
2023-03-04T12:43:09.633Z,76.35
2023-03-04T12:46:30.802Z,77.21
2023-03-04T12:50:03.268Z,76.51
2023-03-04T12:53:13.851Z,77.22
2023-03-04T12:56:22.641Z,76.37
2023-03-04T12:59:26.831Z,77.20
2023-03-04T13:03:06.413Z,77.23
2023-03-04T13:06:26.508Z,76.90
2023-03-04T13:09:43.778Z,74.95
2023-03-04T13:12:54.631Z,75.44
2023-03-04T13:16:23.315Z,75.91
2023-03-04T13:19:52.719Z,75.19
2023-03-04T13:22:58.340Z,74.51
2023-03-04T13:26:00.136Z,75.36
2023-03-04T13:29:14.050Z,73.80
2023-03-04T13:32:36.803Z,74.57
2023-03-04T13:35:50.452Z,75.38
2023-03-04T13:39:14.114Z,76.01
2023-03-04T13:42:39.869Z,75.91
2023-03-04T13:45:41.296Z,75.63
2023-03-04T13:48:43.081Z,74.08
2023-03-04T13:51:45.915Z,74.82
2023-03-04T13:54:47.379Z,74.88
2023-03-04T13:57:50.924Z,74.95
2023-03-04T14:00:54.788Z,75.10
2023-03-04T14:03:56.289Z,75.89
2023-03-04T14:07:00.149Z,75.97
2023-03-04T14:10:07.459Z,75.75
2023-03-04T14:13:09.213Z,75.51
2023-03-04T14:16:11.584Z,75.40
2023-03-04T14:19:24.619Z,76.43
2023-03-04T14:22:29.440Z,76.60
2023-03-04T14:25:36.985Z,76.00
2023-03-04T14:28:50.115Z,76.13
2023-03-04T14:31:53.177Z,75.86
2023-03-04T14:34:59.170Z,76.40
2023-03-04T14:38:06.381Z,76.39
2023-03-04T14:41:15.086Z,76.17
2023-03-04T14:44:36.067Z,75.94
2023-03-04T14:47:41.850Z,76.40
2023-03-04T14:50:51.287Z,75.81
2023-03-04T14:53:56.556Z,74.84
2023-03-04T14:57:00.636Z,74.02
2023-03-04T15:00:20.554Z,74.67
2023-03-04T15:03:30.335Z,75.17
2023-03-04T15:06:37.904Z,75.07
2023-03-04T15:09:40.916Z,74.63
2023-03-04T15:12:51.393Z,75.04
2023-03-04T15:16:00.886Z,75.94
2023-03-04T15:19:05.890Z,74.41
2023-03-04T15:22:08.045Z,74.54
2023-03-04T15:25:15.186Z,74.78
2023-03-04T15:28:20.641Z,74.44
2023-03-04T15:31:23.898Z,74.89
2023-03-04T15:34:25.287Z,74.76
2023-03-04T15:37:29.310Z,74.87
2023-03-04T15:40:38.880Z,74.58
2023-03-04T15:43:40.268Z,75.12
2023-03-04T15:46:42.064Z,75.25
2023-03-04T15:49:46.909Z,75.28
2023-03-04T15:52:50.862Z,75.97
2023-03-04T15:55:52.809Z,75.82
2023-03-04T15:58:56.689Z,75.94
2023-03-04T16:01:58.104Z,75.95
2023-03-04T16:04:59.529Z,76.20
2023-03-04T16:08:01.518Z,76.06
2023-03-04T16:11:03.045Z,75.79
2023-03-04T16:14:04.417Z,75.95
2023-03-04T16:17:05.829Z,75.77
2023-03-04T16:20:07.457Z,76.56
2023-03-04T16:23:23.746Z,77.11
2023-03-04T16:26:31.217Z,76.61
2023-03-04T16:29:32.586Z,76.32
2023-03-04T16:32:35.105Z,76.11
2023-03-04T16:35:37.582Z,76.44
2023-03-04T16:38:38.995Z,77.23
2023-03-04T16:41:40.365Z,77.03
2023-03-04T16:44:41.763Z,77.09
2023-03-04T16:47:43.287Z,77.37
2023-03-04T16:50:44.862Z,77.66
2023-03-04T16:53:53.274Z,78.32
2023-03-04T16:56:54.716Z,78.00
2023-03-04T16:59:56.207Z,77.71
2023-03-04T17:03:00.294Z,77.53
2023-03-04T17:06:01.775Z,77.52
2023-03-04T17:09:03.261Z,77.53
2023-03-04T17:12:06.462Z,77.37
2023-03-04T17:15:11.448Z,78.61
2023-03-04T17:18:12.877Z,78.53
2023-03-04T17:21:18.546Z,78.75
2023-03-04T17:24:19.985Z,78.70
2023-03-04T17:27:21.380Z,78.44
2023-03-04T17:30:22.819Z,78.86
2023-03-04T17:33:24.259Z,78.92
2023-03-04T17:36:25.627Z,79.27
2023-03-04T17:39:27.109Z,79.28
2023-03-04T17:42:28.544Z,79.27
2023-03-04T17:45:29.989Z,79.00
2023-03-04T17:48:31.698Z,79.43
2023-03-04T17:51:36.153Z,78.65
2023-03-04T17:54:37.869Z,79.71
2023-03-04T17:57:39.273Z,78.89
2023-03-04T18:00:40.724Z,80.03
2023-03-04T18:03:42.093Z,80.25
2023-03-04T18:06:43.620Z,80.13
2023-03-04T18:09:47.044Z,79.86
2023-03-04T18:12:48.477Z,79.61
2023-03-04T18:15:49.999Z,79.98
2023-03-04T18:18:52.072Z,80.08
2023-03-04T18:21:53.457Z,80.91
2023-03-04T18:24:54.918Z,81.30
2023-03-04T18:27:56.347Z,81.47
2023-03-04T18:30:57.802Z,81.29
2023-03-04T18:34:01.332Z,81.07
2023-03-04T18:37:02.822Z,80.39
2023-03-04T18:40:04.880Z,80.90
2023-03-04T18:43:06.352Z,80.36
2023-03-04T18:46:09.595Z,80.58
2023-03-04T18:49:12.748Z,80.00
2023-03-04T18:52:14.334Z,80.46
2023-03-04T18:55:16.243Z,80.55
2023-03-04T18:58:17.670Z,80.62
2023-03-04T19:01:22.060Z,80.20
2023-03-04T19:04:27.562Z,80.76
2023-03-04T19:07:28.986Z,80.29
2023-03-04T19:10:30.593Z,80.26
2023-03-04T19:13:32.848Z,80.58
2023-03-04T19:16:34.454Z,80.50
2023-03-04T19:19:36.412Z,80.13
2023-03-04T19:22:37.854Z,79.68
2023-03-04T19:25:40.312Z,80.02
2023-03-04T19:28:42.204Z,79.51
2023-03-04T19:31:43.586Z,79.49
2023-03-04T19:34:46.320Z,79.99
2023-03-04T19:37:47.700Z,80.21
2023-03-04T19:40:49.102Z,79.84
2023-03-04T19:43:50.606Z,80.00
2023-03-04T19:46:52.097Z,80.51
2023-03-04T19:49:53.572Z,80.38
2023-03-04T19:52:55.030Z,80.58
2023-03-04T19:55:56.450Z,81.14
2023-03-04T19:58:58.262Z,81.00
2023-03-04T20:02:01.209Z,80.99
2023-03-04T20:05:03.438Z,82.08
2023-03-04T20:08:05.385Z,82.24
2023-03-04T20:11:11.315Z,81.72
2023-03-04T20:14:13.204Z,80.56
2023-03-04T20:17:15.108Z,79.97
2023-03-04T20:20:16.748Z,80.87
2023-03-04T20:23:20.269Z,80.30
2023-03-04T20:26:21.824Z,80.64
2023-03-04T20:29:28.426Z,80.10
2023-03-04T20:32:29.904Z,80.52
2023-03-04T20:35:31.307Z,80.58
2023-03-04T20:38:32.745Z,80.13
2023-03-04T20:41:34.672Z,80.38
2023-03-04T20:44:36.154Z,80.31
2023-03-04T20:47:39.599Z,79.61
2023-03-04T20:50:41.203Z,79.52
2023-03-04T20:53:42.641Z,79.54
2023-03-04T20:56:44.185Z,79.64
2023-03-04T20:59:45.575Z,79.62
2023-03-04T21:02:46.966Z,79.58
2023-03-04T21:05:48.354Z,79.83
2023-03-04T21:08:49.910Z,78.48
2023-03-04T21:11:51.479Z,79.21
2023-03-04T21:14:52.912Z,79.76
2023-03-04T21:17:54.500Z,79.70
2023-03-04T21:20:55.968Z,79.01
2023-03-04T21:23:59.196Z,79.63
2023-03-04T21:27:01.510Z,79.42
2023-03-04T21:30:03.051Z,79.76
2023-03-04T21:33:05.598Z,79.08
2023-03-04T21:36:07.309Z,79.88
2023-03-04T21:39:14.605Z,80.98
2023-03-04T21:42:16.071Z,81.97
2023-03-04T21:45:17.547Z,82.66
2023-03-04T21:48:19.197Z,85.23
2023-03-04T21:51:20.626Z,88.40
2023-03-04T21:54:22.970Z,89.03
2023-03-04T21:57:24.380Z,90.95
2023-03-04T22:00:25.977Z,92.32
2023-03-04T22:03:27.567Z,93.56
2023-03-04T22:06:31.315Z,95.25
2023-03-04T22:09:33.069Z,96.28
2023-03-04T22:12:34.434Z,97.56
2023-03-04T22:15:37.706Z,97.27
2023-03-04T22:18:40.744Z,96.58
2023-03-04T22:21:42.315Z,96.44
2023-03-04T22:24:43.696Z,95.40
2023-03-04T22:27:45.154Z,95.55
2023-03-04T22:30:46.625Z,96.19
2023-03-04T22:33:48.045Z,96.34
2023-03-04T22:36:49.517Z,96.21
2023-03-04T22:39:50.925Z,95.13
2023-03-04T22:42:52.814Z,95.14
2023-03-04T22:45:54.305Z,94.94
2023-03-04T22:48:57.967Z,94.72
2023-03-04T22:51:59.402Z,94.22
2023-03-04T22:55:00.933Z,94.84
2023-03-04T22:58:03.844Z,95.12
2023-03-04T23:01:05.814Z,95.59
2023-03-04T23:04:07.241Z,95.68
2023-03-04T23:07:08.637Z,95.73
2023-03-04T23:10:17.157Z,96.25
2023-03-04T23:13:18.596Z,95.01
2023-03-04T23:16:21.082Z,94.91
2023-03-04T23:19:22.505Z,95.62
2023-03-04T23:22:24.153Z,96.63
2023-03-04T23:25:25.988Z,97.31
2023-03-04T23:28:27.694Z,97.13
2023-03-04T23:31:30.080Z,97.50
2023-03-04T23:34:31.492Z,97.33
2023-03-04T23:37:33.013Z,97.84
2023-03-04T23:40:34.615Z,97.47
2023-03-04T23:43:36.103Z,97.66
2023-03-04T23:46:37.586Z,97.37
2023-03-04T23:49:38.954Z,97.94
2023-03-04T23:52:40.396Z,97.82
2023-03-04T23:55:41.881Z,97.69
2023-03-04T23:58:44.291Z,97.69
